sensor_id;sensor_type;location;lat;lon;timestamp;pressure;altitude;pressure_sealevel;temperature;humidity
8140;BME280;4111;50.972;7.072;2023-04-05T00:01:33;101891.69;;;5.17;59.10
8140;BME280;4111;50.972;7.072;2023-04-05T00:04:00;101888.53;;;5.13;59.52
8140;BME280;4111;50.972;7.072;2023-04-05T00:06:29;101886.66;;;5.14;60.01
8140;BME280;4111;50.972;7.072;2023-04-05T00:08:56;101879.34;;;5.08;60.37
8140;BME280;4111;50.972;7.072;2023-04-05T00:11:24;101875.59;;;5.09;60.10
8140;BME280;4111;50.972;7.072;2023-04-05T00:13:51;101874.28;;;5.05;59.82
8140;BME280;4111;50.972;7.072;2023-04-05T00:16:18;101868.63;;;5.00;60.75
8140;BME280;4111;50.972;7.072;2023-04-05T00:18:45;101879.75;;;4.96;60.78
8140;BME280;4111;50.972;7.072;2023-04-05T00:21:21;101874.13;;;4.83;61.05
8140;BME280;4111;50.972;7.072;2023-04-05T00:23:55;101873.56;;;4.73;61.38
8140;BME280;4111;50.972;7.072;2023-04-05T00:26:24;101874.94;;;4.69;61.37
8140;BME280;4111;50.972;7.072;2023-04-05T00:28:50;101867.94;;;4.60;62.05
8140;BME280;4111;50.972;7.072;2023-04-05T00:31:17;101866.69;;;4.70;61.93
8140;BME280;4111;50.972;7.072;2023-04-05T00:33:44;101866.94;;;4.61;61.89
8140;BME280;4111;50.972;7.072;2023-04-05T00:36:14;101864.50;;;4.66;62.40
8140;BME280;4111;50.972;7.072;2023-04-05T00:38:42;101867.16;;;4.74;62.34
8140;BME280;4111;50.972;7.072;2023-04-05T00:41:10;101869.16;;;4.72;62.91
8140;BME280;4111;50.972;7.072;2023-04-05T00:43:37;101872.97;;;4.63;63.58
8140;BME280;4111;50.972;7.072;2023-04-05T00:46:04;101881.56;;;4.58;63.54
8140;BME280;4111;50.972;7.072;2023-04-05T00:48:32;101876.16;;;4.58;64.16
8140;BME280;4111;50.972;7.072;2023-04-05T00:50:58;101872.97;;;4.63;64.52
8140;BME280;4111;50.972;7.072;2023-04-05T00:53:25;101875.66;;;4.63;64.80
8140;BME280;4111;50.972;7.072;2023-04-05T00:55:53;101872.97;;;4.63;64.72
8140;BME280;4111;50.972;7.072;2023-04-05T00:58:20;101874.81;;;4.62;64.92
8140;BME280;4111;50.972;7.072;2023-04-05T01:00:59;101874.94;;;4.69;64.69
8140;BME280;4111;50.972;7.072;2023-04-05T01:03:31;101870.94;;;4.65;64.97
8140;BME280;4111;50.972;7.072;2023-04-05T01:06:08;101874.03;;;4.76;64.41
8140;BME280;4111;50.972;7.072;2023-04-05T01:09:06;101864.75;;;4.79;65.06
8140;BME280;4111;50.972;7.072;2023-04-05T01:11:34;101856.09;;;4.69;65.21
8140;BME280;4111;50.972;7.072;2023-04-05T01:14:03;101853.97;;;4.64;65.04
8140;BME280;4111;50.972;7.072;2023-04-05T01:16:29;101854.13;;;4.63;65.68
8140;BME280;4111;50.972;7.072;2023-04-05T01:18:56;101847.72;;;4.64;65.55
8140;BME280;4111;50.972;7.072;2023-04-05T01:26:55;101860.59;;;4.76;65.64
8140;BME280;4111;50.972;7.072;2023-04-05T01:32:23;101849.69;;;4.70;65.87
8140;BME280;4111;50.972;7.072;2023-04-05T01:35:04;101854.41;;;4.68;66.24
8140;BME280;4111;50.972;7.072;2023-04-05T01:37:34;101852.94;;;4.65;66.35
8140;BME280;4111;50.972;7.072;2023-04-05T01:40:02;101853.81;;;4.57;66.28
8140;BME280;4111;50.972;7.072;2023-04-05T01:42:29;101841.88;;;4.60;66.45
8140;BME280;4111;50.972;7.072;2023-04-05T01:44:57;101848.44;;;4.57;66.83
8140;BME280;4111;50.972;7.072;2023-04-05T01:47:23;101846.78;;;4.56;66.72
8140;BME280;4111;50.972;7.072;2023-04-05T01:49:50;101838.41;;;4.51;67.29
8140;BME280;4111;50.972;7.072;2023-04-05T01:52:16;101847.50;;;4.50;67.75
8140;BME280;4111;50.972;7.072;2023-04-05T01:54:42;101843.44;;;4.54;67.35
8140;BME280;4111;50.972;7.072;2023-04-05T01:57:09;101839.84;;;4.39;68.34
8140;BME280;4111;50.972;7.072;2023-04-05T01:59:35;101841.16;;;4.43;67.77
8140;BME280;4111;50.972;7.072;2023-04-05T02:02:02;101839.47;;;4.42;68.19
8140;BME280;4111;50.972;7.072;2023-04-05T02:04:29;101834.16;;;4.34;68.47
8140;BME280;4111;50.972;7.072;2023-04-05T02:06:55;101832.19;;;4.28;68.54
8140;BME280;4111;50.972;7.072;2023-04-05T02:09:22;101824.28;;;4.26;68.39
8140;BME280;4111;50.972;7.072;2023-04-05T02:11:48;101832.19;;;4.28;67.83
8140;BME280;4111;50.972;7.072;2023-04-05T02:14:15;101835.41;;;4.23;68.15
8140;BME280;4111;50.972;7.072;2023-04-05T02:16:41;101826.53;;;4.14;68.03
8140;BME280;4111;50.972;7.072;2023-04-05T02:19:08;101837.06;;;4.01;68.28
8140;BME280;4111;50.972;7.072;2023-04-05T02:21:34;101834.66;;;4.06;68.14
8140;BME280;4111;50.972;7.072;2023-04-05T02:24:02;101831.91;;;4.14;67.77
8140;BME280;4111;50.972;7.072;2023-04-05T02:26:28;101833.59;;;4.15;67.47
8140;BME280;4111;50.972;7.072;2023-04-05T02:28:54;101823.63;;;4.01;67.75
8140;BME280;4111;50.972;7.072;2023-04-05T02:31:21;101823.16;;;3.89;67.49
8140;BME280;4111;50.972;7.072;2023-04-05T02:33:47;101827.00;;;3.95;67.65
8140;BME280;4111;50.972;7.072;2023-04-05T02:36:14;101821.97;;;3.92;68.14
8140;BME280;4111;50.972;7.072;2023-04-05T02:38:41;101826.84;;;3.88;68.32
8140;BME280;4111;50.972;7.072;2023-04-05T02:41:08;101821.00;;;3.85;68.91
8140;BME280;4111;50.972;7.072;2023-04-05T02:43:36;101834.97;;;3.80;68.80
8140;BME280;4111;50.972;7.072;2023-04-05T02:46:02;101829.78;;;3.70;69.11
8140;BME280;4111;50.972;7.072;2023-04-05T02:48:29;101829.28;;;3.67;68.74
8140;BME280;4111;50.972;7.072;2023-04-05T02:50:55;101832.50;;;3.62;69.30
8140;BME280;4111;50.972;7.072;2023-04-05T02:53:22;101823.13;;;3.58;69.50
8140;BME280;4111;50.972;7.072;2023-04-05T02:55:55;101819.63;;;3.57;69.67
8140;BME280;4111;50.972;7.072;2023-04-05T02:58:22;101827.00;;;3.55;69.79
8140;BME280;4111;50.972;7.072;2023-04-05T03:00:50;101826.16;;;3.55;69.59
8140;BME280;4111;50.972;7.072;2023-04-05T03:03:18;101830.19;;;3.51;69.66
8140;BME280;4111;50.972;7.072;2023-04-05T03:05:45;101832.22;;;3.49;69.67
8140;BME280;4111;50.972;7.072;2023-04-05T03:08:16;101829.44;;;3.34;70.13
8140;BME280;4111;50.972;7.072;2023-04-05T03:10:52;101831.28;;;3.25;70.49
8140;BME280;4111;50.972;7.072;2023-04-05T03:13:19;101829.25;;;3.27;70.61
8140;BME280;4111;50.972;7.072;2023-04-05T03:15:45;101829.13;;;3.21;71.11
8140;BME280;4111;50.972;7.072;2023-04-05T03:18:12;101820.22;;;3.12;70.74
8140;BME280;4111;50.972;7.072;2023-04-05T03:20:38;101825.28;;;3.07;71.64
8140;BME280;4111;50.972;7.072;2023-04-05T03:23:08;101821.44;;;3.01;72.04
8140;BME280;4111;50.972;7.072;2023-04-05T03:25:35;101820.25;;;2.95;71.99
8140;BME280;4111;50.972;7.072;2023-04-05T03:28:05;101823.78;;;2.96;71.57
8140;BME280;4111;50.972;7.072;2023-04-05T03:30:34;101823.09;;;2.94;71.87
8140;BME280;4111;50.972;7.072;2023-04-05T03:33:01;101827.13;;;2.90;72.25
8140;BME280;4111;50.972;7.072;2023-04-05T03:35:28;101818.94;;;2.91;72.24
8140;BME280;4111;50.972;7.072;2023-04-05T03:37:55;101824.97;;;2.85;72.30
8140;BME280;4111;50.972;7.072;2023-04-05T03:40:23;101818.94;;;2.91;72.26
8140;BME280;4111;50.972;7.072;2023-04-05T03:42:49;101820.09;;;2.89;71.52
8140;BME280;4111;50.972;7.072;2023-04-05T03:45:16;101820.28;;;2.79;72.07
8140;BME280;4111;50.972;7.072;2023-04-05T03:47:49;101813.91;;;2.72;72.45
8140;BME280;4111;50.972;7.072;2023-04-05T03:50:16;101810.75;;;2.76;72.58
8140;BME280;4111;50.972;7.072;2023-04-05T03:52:42;101816.59;;;2.72;72.52
8140;BME280;4111;50.972;7.072;2023-04-05T03:55:09;101807.22;;;2.68;72.17
8140;BME280;4111;50.972;7.072;2023-04-05T03:57:36;101809.56;;;2.63;71.78
8140;BME280;4111;50.972;7.072;2023-04-05T04:00:05;101800.66;;;2.54;72.22
8140;BME280;4111;50.972;7.072;2023-04-05T04:02:48;101805.88;;;2.47;72.90
8140;BME280;4111;50.972;7.072;2023-04-05T04:05:16;101804.19;;;2.46;72.78
8140;BME280;4111;50.972;7.072;2023-04-05T04:07:43;101807.38;;;2.42;72.96
8140;BME280;4111;50.972;7.072;2023-04-05T04:10:14;101802.84;;;2.42;73.32
8140;BME280;4111;50.972;7.072;2023-04-05T04:12:43;101795.16;;;2.39;73.31
8140;BME280;4111;50.972;7.072;2023-04-05T04:15:10;101791.97;;;2.35;73.39
8140;BME280;4111;50.972;7.072;2023-04-05T04:17:37;101800.84;;;2.36;73.32
8140;BME280;4111;50.972;7.072;2023-04-05T04:20:05;101803.16;;;2.31;73.44
8140;BME280;4111;50.972;7.072;2023-04-05T04:22:38;101798.16;;;2.36;73.75
8140;BME280;4111;50.972;7.072;2023-04-05T04:25:10;101807.69;;;2.38;73.94
8140;BME280;4111;50.972;7.072;2023-04-05T04:27:40;101806.88;;;2.38;73.99
8140;BME280;4111;50.972;7.072;2023-04-05T04:30:12;101796.81;;;2.32;74.38
8140;BME280;4111;50.972;7.072;2023-04-05T04:32:39;101804.50;;;2.27;73.82
8140;BME280;4111;50.972;7.072;2023-04-05T04:35:24;101800.47;;;2.31;74.05
8140;BME280;4111;50.972;7.072;2023-04-05T04:38:02;101810.22;;;2.32;74.18
8140;BME280;4111;50.972;7.072;2023-04-05T04:40:30;101801.16;;;2.33;73.83
8140;BME280;4111;50.972;7.072;2023-04-05T04:43:08;101807.19;;;2.35;74.10
8140;BME280;4111;50.972;7.072;2023-04-05T04:45:48;101800.50;;;2.39;74.24
8140;BME280;4111;50.972;7.072;2023-04-05T04:48:15;101802.34;;;2.38;73.76
8140;BME280;4111;50.972;7.072;2023-04-05T04:50:43;101807.19;;;2.35;73.65
8140;BME280;4111;50.972;7.072;2023-04-05T04:53:10;101800.84;;;2.36;74.23
8140;BME280;4111;50.972;7.072;2023-04-05T04:55:37;101815.72;;;2.30;73.84
8140;BME280;4111;50.972;7.072;2023-04-05T04:58:04;101814.88;;;2.22;74.55
8140;BME280;4111;50.972;7.072;2023-04-05T05:00:37;101817.06;;;2.18;74.45
8140;BME280;4111;50.972;7.072;2023-04-05T05:03:03;101810.00;;;2.17;74.17
8140;BME280;4111;50.972;7.072;2023-04-05T05:05:30;101818.03;;;2.09;74.32
8140;BME280;4111;50.972;7.072;2023-04-05T05:07:56;101818.16;;;1.99;74.81
8140;BME280;4111;50.972;7.072;2023-04-05T05:10:23;101820.03;;;1.98;74.77
8140;BME280;4111;50.972;7.072;2023-04-05T05:12:49;101821.22;;;2.04;74.64
8140;BME280;4111;50.972;7.072;2023-04-05T05:15:17;101815.50;;;2.07;74.38
8140;BME280;4111;50.972;7.072;2023-04-05T05:17:44;101828.56;;;2.02;74.26
8140;BME280;4111;50.972;7.072;2023-04-05T05:20:10;101825.75;;;2.04;74.19
8140;BME280;4111;50.972;7.072;2023-04-05T05:22:38;101821.53;;;2.01;74.27
8140;BME280;4111;50.972;7.072;2023-04-05T05:25:06;101824.38;;;2.00;73.96
8140;BME280;4111;50.972;7.072;2023-04-05T05:27:33;101829.06;;;1.97;74.29
8140;BME280;4111;50.972;7.072;2023-04-05T05:30:00;101819.03;;;2.00;73.86
8140;BME280;4111;50.972;7.072;2023-04-05T05:32:27;101819.34;;;1.96;74.29
8140;BME280;4111;50.972;7.072;2023-04-05T05:34:53;101818.81;;;1.93;74.24
8140;BME280;4111;50.972;7.072;2023-04-05T05:37:31;101822.41;;;2.10;74.10
8140;BME280;4111;50.972;7.072;2023-04-05T05:39:58;101819.88;;;2.08;74.08
8140;BME280;4111;50.972;7.072;2023-04-05T05:42:25;101813.53;;;2.17;74.29
8140;BME280;4111;50.972;7.072;2023-04-05T05:44:52;101809.69;;;2.20;74.17
8140;BME280;4111;50.972;7.072;2023-04-05T05:47:19;101817.56;;;2.22;74.91
8140;BME280;4111;50.972;7.072;2023-04-05T05:49:45;101822.25;;;2.28;75.27
8140;BME280;4111;50.972;7.072;2023-04-05T05:52:13;101814.56;;;2.33;74.69
8140;BME280;4111;50.972;7.072;2023-04-05T05:54:39;101817.59;;;2.38;74.63
8140;BME280;4111;50.972;7.072;2023-04-05T05:57:06;101824.28;;;2.34;74.46
8140;BME280;4111;50.972;7.072;2023-04-05T05:59:32;101826.28;;;2.48;74.46
8140;BME280;4111;50.972;7.072;2023-04-05T06:01:59;101825.31;;;2.57;74.58
8140;BME280;4111;50.972;7.072;2023-04-05T06:04:25;101827.31;;;2.72;74.90
8140;BME280;4111;50.972;7.072;2023-04-05T06:06:54;101830.00;;;2.96;73.86
8140;BME280;4111;50.972;7.072;2023-04-05T06:09:21;101832.31;;;3.00;73.27
8140;BME280;4111;50.972;7.072;2023-04-05T06:11:52;101827.31;;;3.05;72.38
8140;BME280;4111;50.972;7.072;2023-04-05T06:14:23;101821.91;;;3.13;71.79
8140;BME280;4111;50.972;7.072;2023-04-05T06:16:50;101820.88;;;3.14;71.73
8140;BME280;4111;50.972;7.072;2023-04-05T06:19:16;101818.91;;;3.16;71.34
8140;BME280;4111;50.972;7.072;2023-04-05T06:21:43;101816.53;;;3.21;70.71
8140;BME280;4111;50.972;7.072;2023-04-05T06:24:09;101816.31;;;3.39;70.58
8140;BME280;4111;50.972;7.072;2023-04-05T06:26:36;101811.41;;;3.51;70.07
8140;BME280;4111;50.972;7.072;2023-04-05T06:29:02;101824.63;;;3.61;69.47
8140;BME280;4111;50.972;7.072;2023-04-05T06:31:33;101806.22;;;3.81;69.42
8140;BME280;4111;50.972;7.072;2023-04-05T06:34:00;101809.19;;;3.94;69.12
8140;BME280;4111;50.972;7.072;2023-04-05T06:36:29;101806.84;;;3.99;68.94
8140;BME280;4111;50.972;7.072;2023-04-05T06:38:57;101817.09;;;4.18;68.56
8140;BME280;4111;50.972;7.072;2023-04-05T06:41:23;101813.28;;;4.36;68.20
8140;BME280;4111;50.972;7.072;2023-04-05T06:43:50;101814.91;;;4.45;68.05
8140;BME280;4111;50.972;7.072;2023-04-05T06:46:16;101812.81;;;4.55;66.76
8140;BME280;4111;50.972;7.072;2023-04-05T06:48:43;101806.72;;;4.62;66.90
8140;BME280;4111;50.972;7.072;2023-04-05T06:51:09;101811.38;;;4.68;65.92
8140;BME280;4111;50.972;7.072;2023-04-05T06:53:36;101812.53;;;4.88;65.73
8140;BME280;4111;50.972;7.072;2023-04-05T06:56:02;101816.16;;;4.95;64.67
8140;BME280;4111;50.972;7.072;2023-04-05T06:58:29;101816.19;;;5.10;64.07
8140;BME280;4111;50.972;7.072;2023-04-05T07:00:56;101815.94;;;5.20;63.34
8140;BME280;4111;50.972;7.072;2023-04-05T07:03:22;101803.69;;;5.32;63.16
8140;BME280;4111;50.972;7.072;2023-04-05T07:05:50;101813.59;;;5.47;62.80
8140;BME280;4111;50.972;7.072;2023-04-05T07:08:18;101816.13;;;5.63;62.36
8140;BME280;4111;50.972;7.072;2023-04-05T07:10:45;101818.16;;;5.61;61.30
8140;BME280;4111;50.972;7.072;2023-04-05T07:13:12;101809.03;;;5.77;61.79
8140;BME280;4111;50.972;7.072;2023-04-05T07:15:38;101803.34;;;6.02;61.82
8140;BME280;4111;50.972;7.072;2023-04-05T07:18:05;101802.66;;;6.14;60.83
8140;BME280;4111;50.972;7.072;2023-04-05T07:20:32;101801.94;;;6.27;60.04
8140;BME280;4111;50.972;7.072;2023-04-05T07:22:58;101793.94;;;6.34;59.44
8140;BME280;4111;50.972;7.072;2023-04-05T07:25:24;101790.53;;;6.47;58.83
8140;BME280;4111;50.972;7.072;2023-04-05T07:27:51;101789.38;;;6.56;58.52
8140;BME280;4111;50.972;7.072;2023-04-05T07:30:17;101794.03;;;6.69;57.75
8140;BME280;4111;50.972;7.072;2023-04-05T07:32:44;101796.72;;;6.69;57.42
8140;BME280;4111;50.972;7.072;2023-04-05T07:35:11;101797.00;;;6.74;56.44
8140;BME280;4111;50.972;7.072;2023-04-05T07:37:37;101789.66;;;6.89;56.28
8140;BME280;4111;50.972;7.072;2023-04-05T07:40:04;101791.88;;;7.14;55.92
8140;BME280;4111;50.972;7.072;2023-04-05T07:42:31;101796.56;;;7.33;55.77
8140;BME280;4111;50.972;7.072;2023-04-05T07:44:58;101792.13;;;7.19;54.91
8140;BME280;4111;50.972;7.072;2023-04-05T07:47:25;101788.22;;;7.28;54.41
8140;BME280;4111;50.972;7.072;2023-04-05T07:49:51;101789.00;;;7.50;54.22
8140;BME280;4111;50.972;7.072;2023-04-05T07:52:17;101789.63;;;7.59;53.83
8140;BME280;4111;50.972;7.072;2023-04-05T07:54:44;101794.00;;;7.60;53.12
8140;BME280;4111;50.972;7.072;2023-04-05T07:57:17;101791.34;;;7.67;52.81
8140;BME280;4111;50.972;7.072;2023-04-05T07:59:44;101781.03;;;7.90;52.77
8140;BME280;4111;50.972;7.072;2023-04-05T08:02:11;101790.06;;;8.18;52.55
8140;BME280;4111;50.972;7.072;2023-04-05T08:04:40;101788.19;;;8.18;52.12
8140;BME280;4111;50.972;7.072;2023-04-05T08:07:07;101782.81;;;8.38;51.77
8140;BME280;4111;50.972;7.072;2023-04-05T08:09:34;101784.69;;;8.38;50.78
8140;BME280;4111;50.972;7.072;2023-04-05T08:12:01;101783.28;;;8.62;51.04
8140;BME280;4111;50.972;7.072;2023-04-05T08:14:28;101792.84;;;8.84;50.94
8140;BME280;4111;50.972;7.072;2023-04-05T08:16:54;101785.97;;;8.75;49.83
8140;BME280;4111;50.972;7.072;2023-04-05T08:19:21;101784.94;;;8.83;49.67
8140;BME280;4111;50.972;7.072;2023-04-05T08:21:47;101781.59;;;9.01;50.02
8140;BME280;4111;50.972;7.072;2023-04-05T08:24:13;101777.16;;;9.20;49.66
8140;BME280;4111;50.972;7.072;2023-04-05T08:26:40;101783.16;;;9.48;49.90
8140;BME280;4111;50.972;7.072;2023-04-05T08:29:08;101778.09;;;9.59;49.21
8140;BME280;4111;50.972;7.072;2023-04-05T08:31:35;101782.25;;;9.61;48.70
8140;BME280;4111;50.972;7.072;2023-04-05T08:34:01;101782.16;;;9.81;48.30
8140;BME280;4111;50.972;7.072;2023-04-05T08:36:28;101779.97;;;10.03;48.22
8140;BME280;4111;50.972;7.072;2023-04-05T08:38:55;101779.78;;;9.98;47.68
8140;BME280;4111;50.972;7.072;2023-04-05T08:41:23;101781.94;;;9.83;47.30
8140;BME280;4111;50.972;7.072;2023-04-05T08:43:58;101777.91;;;9.99;47.30
8140;BME280;4111;50.972;7.072;2023-04-05T08:46:33;101775.25;;;10.24;46.75
8140;BME280;4111;50.972;7.072;2023-04-05T08:49:04;101773.53;;;10.36;46.31
8140;BME280;4111;50.972;7.072;2023-04-05T08:51:33;101771.88;;;10.60;46.44
8140;BME280;4111;50.972;7.072;2023-04-05T08:54:01;101774.94;;;10.45;45.57
8140;BME280;4111;50.972;7.072;2023-04-05T08:56:32;101775.16;;;10.44;45.37
8140;BME280;4111;50.972;7.072;2023-04-05T08:59:03;101766.78;;;10.45;45.03
8140;BME280;4111;50.972;7.072;2023-04-05T09:01:32;101767.41;;;10.73;45.39
8140;BME280;4111;50.972;7.072;2023-04-05T09:04:11;101767.97;;;11.00;45.08
8140;BME280;4111;50.972;7.072;2023-04-05T09:06:39;101765.84;;;11.02;44.32
8140;BME280;4111;50.972;7.072;2023-04-05T09:09:06;101760.34;;;10.90;43.91
8140;BME280;4111;50.972;7.072;2023-04-05T09:11:34;101768.75;;;11.07;44.36
8140;BME280;4111;50.972;7.072;2023-04-05T09:14:05;101765.00;;;11.08;44.06
8140;BME280;4111;50.972;7.072;2023-04-05T09:16:39;101761.00;;;10.85;43.75
8140;BME280;4111;50.972;7.072;2023-04-05T09:19:07;101761.59;;;11.13;44.25
8140;BME280;4111;50.972;7.072;2023-04-05T09:22:03;101758.56;;;11.21;44.03
8140;BME280;4111;50.972;7.072;2023-04-05T09:24:34;101750.19;;;11.22;44.17
8140;BME280;4111;50.972;7.072;2023-04-05T09:27:03;101750.56;;;11.26;44.08
8140;BME280;4111;50.972;7.072;2023-04-05T09:29:31;101742.94;;;11.35;43.25
8140;BME280;4111;50.972;7.072;2023-04-05T09:31:59;101754.38;;;11.55;42.74
8140;BME280;4111;50.972;7.072;2023-04-05T09:34:26;101752.59;;;11.67;42.69
8140;BME280;4111;50.972;7.072;2023-04-05T09:36:52;101742.34;;;11.81;43.09
8140;BME280;4111;50.972;7.072;2023-04-05T09:39:27;101744.97;;;11.88;42.53
8140;BME280;4111;50.972;7.072;2023-04-05T09:42:05;101738.63;;;11.94;42.23
8140;BME280;4111;50.972;7.072;2023-04-05T09:44:54;101731.22;;;12.01;41.97
8140;BME280;4111;50.972;7.072;2023-04-05T09:47:24;101734.44;;;12.10;41.80
8140;BME280;4111;50.972;7.072;2023-04-05T09:49:52;101730.78;;;12.16;40.88
8140;BME280;4111;50.972;7.072;2023-04-05T09:52:23;101727.44;;;12.14;40.28
8140;BME280;4111;50.972;7.072;2023-04-05T09:54:52;101742.88;;;12.32;40.58
8140;BME280;4111;50.972;7.072;2023-04-05T09:57:24;101734.88;;;11.77;40.25
8140;BME280;4111;50.972;7.072;2023-04-05T09:59:57;101738.75;;;11.69;40.43
8140;BME280;4111;50.972;7.072;2023-04-05T10:02:24;101717.28;;;11.79;40.62
8140;BME280;4111;50.972;7.072;2023-04-05T10:04:51;101722.22;;;12.01;40.53
8140;BME280;4111;50.972;7.072;2023-04-05T10:07:18;101724.47;;;12.04;40.36
8140;BME280;4111;50.972;7.072;2023-04-05T10:09:47;101731.47;;;11.81;39.77
8140;BME280;4111;50.972;7.072;2023-04-05T10:12:23;101724.47;;;11.74;39.89
8140;BME280;4111;50.972;7.072;2023-04-05T10:14:52;101726.84;;;11.82;40.17
8140;BME280;4111;50.972;7.072;2023-04-05T10:20:15;101706.78;;;11.64;40.35
8140;BME280;4111;50.972;7.072;2023-04-05T10:27:54;101715.22;;;11.44;39.97
8140;BME280;4111;50.972;7.072;2023-04-05T10:30:33;101713.34;;;11.75;41.30
8140;BME280;4111;50.972;7.072;2023-04-05T10:36:00;101714.84;;;11.89;39.85
8140;BME280;4111;50.972;7.072;2023-04-05T10:38:29;101709.19;;;11.91;40.13
8140;BME280;4111;50.972;7.072;2023-04-05T10:41:17;101709.84;;;11.38;39.42
8140;BME280;4111;50.972;7.072;2023-04-05T10:43:45;101702.41;;;11.63;39.97
8140;BME280;4111;50.972;7.072;2023-04-05T10:46:12;101702.97;;;11.84;40.20
8140;BME280;4111;50.972;7.072;2023-04-05T10:51:37;101694.75;;;12.02;39.85
8140;BME280;4111;50.972;7.072;2023-04-05T10:54:06;101692.41;;;12.06;39.73
8140;BME280;4111;50.972;7.072;2023-04-05T10:56:33;101689.81;;;11.81;39.37
8140;BME280;4111;50.972;7.072;2023-04-05T10:59:00;101693.25;;;11.88;39.47
8140;BME280;4111;50.972;7.072;2023-04-05T11:01:27;101690.56;;;11.58;38.91
8140;BME280;4111;50.972;7.072;2023-04-05T11:03:54;101683.22;;;11.58;39.65
8140;BME280;4111;50.972;7.072;2023-04-05T11:06:30;101686.38;;;11.74;39.63
8140;BME280;4111;50.972;7.072;2023-04-05T11:09:10;101682.22;;;11.71;39.24
8140;BME280;4111;50.972;7.072;2023-04-05T11:11:42;101672.88;;;11.79;38.97
8140;BME280;4111;50.972;7.072;2023-04-05T11:14:21;101675.66;;;11.90;38.95
8140;BME280;4111;50.972;7.072;2023-04-05T11:16:51;101669.94;;;12.10;40.32
8140;BME280;4111;50.972;7.072;2023-04-05T11:22:23;101666.63;;;12.32;40.06
8140;BME280;4111;50.972;7.072;2023-04-05T11:25:00;101663.22;;;12.37;39.38
8140;BME280;4111;50.972;7.072;2023-04-05T11:27:33;101662.09;;;12.14;38.32
8140;BME280;4111;50.972;7.072;2023-04-05T11:30:03;101655.50;;;12.22;38.15
8140;BME280;4111;50.972;7.072;2023-04-05T11:32:44;101654.78;;;12.15;37.95
8140;BME280;4111;50.972;7.072;2023-04-05T11:35:14;101660.94;;;12.22;37.88
8140;BME280;4111;50.972;7.072;2023-04-05T11:40:32;101652.53;;;12.12;37.34
8140;BME280;4111;50.972;7.072;2023-04-05T11:43:07;101646.25;;;11.99;37.06
8140;BME280;4111;50.972;7.072;2023-04-05T11:45:36;101648.41;;;12.21;37.69
8140;BME280;4111;50.972;7.072;2023-04-05T11:48:07;101651.81;;;12.16;37.45
8140;BME280;4111;50.972;7.072;2023-04-05T11:50:38;101648.81;;;11.94;37.26
8140;BME280;4111;50.972;7.072;2023-04-05T11:53:12;101648.38;;;11.97;37.27
8140;BME280;4111;50.972;7.072;2023-04-05T11:55:48;101641.28;;;12.08;37.48
8140;BME280;4111;50.972;7.072;2023-04-05T11:58:21;101638.34;;;12.21;37.06
8140;BME280;4111;50.972;7.072;2023-04-05T12:01:02;101631.13;;;12.27;37.17
8140;BME280;4111;50.972;7.072;2023-04-05T12:03:29;101641.06;;;12.33;37.30
8140;BME280;4111;50.972;7.072;2023-04-05T12:05:57;101637.75;;;12.55;37.06
8140;BME280;4111;50.972;7.072;2023-04-05T12:11:07;101630.63;;;12.54;36.47
8140;BME280;4111;50.972;7.072;2023-04-05T12:13:34;101622.22;;;12.55;36.49
8140;BME280;4111;50.972;7.072;2023-04-05T12:16:05;101627.03;;;12.88;36.94
8140;BME280;4111;50.972;7.072;2023-04-05T12:18:33;101625.22;;;13.06;36.08
8140;BME280;4111;50.972;7.072;2023-04-05T12:21:02;101621.38;;;13.19;35.62
8140;BME280;4111;50.972;7.072;2023-04-05T12:23:32;101611.03;;;13.33;35.39
8140;BME280;4111;50.972;7.072;2023-04-05T12:25:59;101619.72;;;13.29;34.70
8140;BME280;4111;50.972;7.072;2023-04-05T12:28:49;101615.28;;;13.28;34.54
8140;BME280;4111;50.972;7.072;2023-04-05T12:31:38;101613.47;;;13.46;34.73
8140;BME280;4111;50.972;7.072;2023-04-05T12:34:05;101611.69;;;13.52;34.58
8140;BME280;4111;50.972;7.072;2023-04-05T12:36:32;101593.78;;;13.89;34.59
8140;BME280;4111;50.972;7.072;2023-04-05T12:39:00;101591.13;;;13.78;34.10
8140;BME280;4111;50.972;7.072;2023-04-05T12:41:30;101594.50;;;14.19;33.67
8140;BME280;4111;50.972;7.072;2023-04-05T12:43:57;101597.91;;;14.26;33.31
8140;BME280;4111;50.972;7.072;2023-04-05T12:46:40;101591.00;;;14.23;33.69
8140;BME280;4111;50.972;7.072;2023-04-05T12:49:11;101591.63;;;14.08;33.41
8140;BME280;4111;50.972;7.072;2023-04-05T12:51:42;101587.50;;;13.89;33.86
8140;BME280;4111;50.972;7.072;2023-04-05T12:54:20;101583.44;;;13.75;33.97
8140;BME280;4111;50.972;7.072;2023-04-05T12:56:51;101582.44;;;13.98;34.02
8140;BME280;4111;50.972;7.072;2023-04-05T12:59:20;101578.97;;;14.02;33.50
8140;BME280;4111;50.972;7.072;2023-04-05T13:01:47;101577.41;;;14.06;33.43
8140;BME280;4111;50.972;7.072;2023-04-05T13:04:13;101576.19;;;14.36;33.82
8140;BME280;4111;50.972;7.072;2023-04-05T13:06:43;101565.59;;;14.40;33.21
8140;BME280;4111;50.972;7.072;2023-04-05T13:09:12;101569.16;;;14.23;33.30
8140;BME280;4111;50.972;7.072;2023-04-05T13:11:38;101555.19;;;14.59;33.11
8140;BME280;4111;50.972;7.072;2023-04-05T13:14:05;101558.34;;;14.51;32.42
8140;BME280;4111;50.972;7.072;2023-04-05T13:16:32;101553.25;;;14.76;32.57
8140;BME280;4111;50.972;7.072;2023-04-05T13:18:58;101557.00;;;15.19;32.36
8140;BME280;4111;50.972;7.072;2023-04-05T13:21:25;101552.47;;;15.30;31.93
8140;BME280;4111;50.972;7.072;2023-04-05T13:23:52;101538.56;;;15.64;31.76
8140;BME280;4111;50.972;7.072;2023-04-05T13:26:18;101553.19;;;15.75;31.59
8140;BME280;4111;50.972;7.072;2023-04-05T13:28:45;101549.56;;;16.06;31.50
8140;BME280;4111;50.972;7.072;2023-04-05T13:31:11;101545.84;;;16.23;31.55
8140;BME280;4111;50.972;7.072;2023-04-05T13:33:40;101535.34;;;16.62;31.07
8140;BME280;4111;50.972;7.072;2023-04-05T13:36:07;101530.53;;;16.90;31.00
8140;BME280;4111;50.972;7.072;2023-04-05T13:38:34;101530.75;;;16.73;30.11
8140;BME280;4111;50.972;7.072;2023-04-05T13:41:00;101530.25;;;16.81;30.61
8140;BME280;4111;50.972;7.072;2023-04-05T13:43:26;101531.69;;;16.41;29.90
8140;BME280;4111;50.972;7.072;2023-04-05T13:45:53;101530.16;;;16.66;30.05
8140;BME280;4111;50.972;7.072;2023-04-05T13:48:19;101519.91;;;17.14;30.33
8140;BME280;4111;50.972;7.072;2023-04-05T13:50:46;101518.84;;;17.51;30.01
8140;BME280;4111;50.972;7.072;2023-04-05T13:53:12;101512.53;;;17.81;29.56
8140;BME280;4111;50.972;7.072;2023-04-05T13:55:38;101513.06;;;18.09;29.23
8140;BME280;4111;50.972;7.072;2023-04-05T13:58:05;101508.63;;;18.23;29.00